シャルル・ド・ゴール国際空港(パリ)の過去48時間の天気

シャルル・ド・ゴール国際空港(パリ) (Paris-Aeroport Charles De Gaulle)

現在時刻: 1/24 13:20 CET (1/24 12:20 UTC) 以下の時間は現地時間です。

過去48時間のMETAR気象情報
時間 風向 風速(m/s) 視程 気温(℃) 湿度(%) 気圧(hPa) 天気現象
24 13:00 北東 2 1800m 0 93 1023 もや
24 12:30 北北東 3 1800m 0 93 1023 もや
24 12:00 東北東 3 1800m 0 93 1024 もや
24 11:30 2 1800m 0 93 1024 もや
24 11:00 南東 3 2300m 0 93 1023 もや
24 10:30 南東 3 2300m -1 93 1023 もや
24 10:00 東北東 3 2300m 0 93 1024 もや
24 09:30 2 2000m 0 93 1023 もや
24 09:00 3 2500m -1 100 1024 もや
24 08:30 3 2800m -1 100 1023 もや
24 08:00 3 3000m -1 100 1023 もや
24 07:30 東北東 3 3000m -1 100 1023 もや
24 07:00 北東 4 3000m -1 100 1023 もや
24 06:30 北東 3 3000m -1 100 1023 もや
24 06:00 北東 3 3000m -1 100 1023 もや
24 05:30 東北東 4 3000m -1 100 1023 もや
24 05:00 北東 3 4000m -1 93 1023 もや
24 04:30 北東 3 4000m -1 93 1023 もや
24 04:00 北東 3 4000m -1 93 1023 もや
24 03:30 北東 4 4000m -1 93 1024 もや
24 03:00 北東 4 4000m -1 93 1024 もや
24 02:30 東北東 3 4000m -1 100 1024 もや
24 02:00 東北東 4 4000m 0 93 1024 もや
24 01:30 東北東 4 4000m 0 93 1024 もや
24 01:00 東北東 5 4000m -1 100 1025 もや
24 00:30 東北東 4 4000m -1 100 1025 部分霧 もや
24 00:00 北東 4 4000m -1 100 1025 部分霧 もや
23 23:30 北東 4 4000m -1 100 1025 もや
23 23:00 北東 4 4000m -1 100 1025 もや
23 22:30 北東 4 2500m 0 93 1025 もや
23 22:00 北東 4 2500m 0 100 1025 もや
23 21:30 3 6000m 0 93 1026
23 21:00 北北東 3 6000m 0 93 1026
23 20:30 北北東 4 6000m 0 93 1026
LFPG 241200Z 04004KT 010V100 1800 BR FEW002 BKN003 M00/M01 Q1023 NOSIG
LFPG 241130Z 03006KT 010V070 1800 BR BKN003 00/M01 Q1023 NOSIG
LFPG 241100Z 06005KT 1800 BR BKN003 00/M01 Q1024 NOSIG
LFPG 241030Z 09003KT 010V160 1800 BR BKN003 00/M01 Q1024 NOSIG
LFPG 241000Z 14005KT 070V170 2300 BR BKN003 M00/M01 Q1023 NOSIG
LFPG 240930Z 14005KT 090V170 2300 BR BKN004 M01/M02 Q1023 NOSIG
LFPG 240900Z 06005KT 040V140 2300 BR BKN004 M00/M01 Q1024 NOSIG
LFPG 240830Z 10004KT 060V130 2000 BR BKN004 M00/M01 Q1023 NOSIG
LFPG 240800Z 09005KT 050V130 2500 BR BKN004 M01/M01 Q1024 NOSIG
LFPG 240730Z 09005KT 2800 BR BKN004 M01/M01 Q1023 NOSIG
LFPG 240700Z 08006KT 040V120 3000 BR BKN004 M01/M01 Q1023 NOSIG
LFPG 240630Z 07006KT 040V100 3000 BR BKN004 M01/M01 Q1023 NOSIG
LFPG 240600Z 05008KT 020V080 3000 BR BKN004 M01/M01 Q1023 NOSIG
LFPG 240530Z 05006KT 3000 BR BKN004 M01/M01 Q1023 NOSIG
LFPG 240500Z 05006KT 3000 BR BKN003 M01/M01 Q1023 NOSIG
LFPG 240430Z 06007KT 3000 BR BKN003 M01/M01 Q1023 NOSIG
LFPG 240400Z 05006KT 4000 BR BKN004 M01/M02 Q1023 NOSIG
LFPG 240330Z 05006KT 020V100 4000 BR SCT005 M01/M02 Q1023 NOSIG
LFPG 240300Z 04006KT 4000 BR NSC M01/M02 Q1023 NOSIG
LFPG 240230Z 04007KT 020V100 4000 BR NSC M01/M02 Q1024 NOSIG
LFPG 240200Z 05007KT 4000 BR SCT004 BKN200 M01/M02 Q1024 NOSIG
LFPG 240130Z 07006KT 4000 BR SCT004 BKN200 M01/M01 Q1024 NOSIG
LFPG 240100Z 06008KT 040V100 4000 BR SCT004 BKN200 M00/M01 Q1024 NOSIG
LFPG 240030Z 07007KT 4000 BR SCT004 BKN200 M00/M01 Q1024 NOSIG
LFPG 240000Z 06010KT 4000 BR SCT002 BKN200 M01/M01 Q1025 NOSIG
LFPG 232330Z 06008KT 4000 0600N R27L/1400U R09R/1200U R26R/P2000 R08L/P2000 R26L/P2000 R08R/P2000 R27R/0900U R09L/1500U PRFG BR SCT001 SCT002 M01/M01 Q1025 NOSIG
LFPG 232300Z 05007KT 4000 0900N R27L/P2000 R09R/P2000 R26R/P2000 R08L/P2000 R26L/P2000 R08R/P2000 R27R/1600D R09L/P2000 PRFG BR FEW001 SCT002 M01/M01 Q1025 NOSIG
LFPG 232230Z 05008KT 4000 BR NSC M01/M01 Q1025 NOSIG
LFPG 232200Z 05008KT 030V090 4000 BR FEW002 M01/M01 Q1025 NOSIG
LFPG 232130Z 04007KT 2500 BR SCT002 SCT190 00/M01 Q1025 NOSIG
LFPG 232100Z 04007KT 020V090 2500 BR SCT002 00/M00 Q1025 NOSIG
LFPG 232030Z 01005KT 360V080 6000 NSC M00/M01 Q1026 NOSIG
LFPG 232000Z 03006KT 020V110 6000 NSC M00/M01 Q1026 NOSIG
LFPG 231930Z 03007KT 6000 NSC M00/M01 Q1026 NOSIG